createdAt,value
2022-09-06T00:01:12.407Z,99.90
2022-09-06T00:03:41.206Z,99.90
2022-09-06T00:06:10.548Z,99.90
2022-09-06T00:08:38.682Z,99.90
2022-09-06T00:11:07.385Z,99.90
2022-09-06T00:13:36.196Z,99.90
2022-09-06T00:16:11.068Z,99.90
2022-09-06T00:18:39.533Z,1.00
2022-09-06T00:21:16.399Z,1.00
2022-09-06T00:23:44.820Z,1.00
2022-09-06T00:26:13.194Z,1.00
2022-09-06T00:28:41.515Z,1.00
2022-09-06T00:31:13.026Z,1.00
2022-09-06T00:33:41.188Z,1.00
2022-09-06T00:36:10.237Z,1.00
2022-09-06T00:38:38.762Z,1.00
2022-09-06T00:41:08.160Z,1.00
2022-09-06T00:43:36.563Z,1.00
2022-09-06T00:46:05.912Z,1.00
2022-09-06T00:48:36.579Z,1.00
2022-09-06T00:51:08.760Z,1.00
2022-09-06T00:53:39.225Z,1.00
2022-09-06T00:56:07.682Z,1.00
2022-09-06T00:58:36.562Z,1.00
2022-09-06T01:01:05.190Z,1.00
2022-09-06T01:03:33.770Z,1.00
2022-09-06T01:06:14.942Z,1.00
2022-09-06T01:08:52.901Z,1.00
2022-09-06T01:11:46.690Z,1.00
2022-09-06T01:14:28.097Z,1.00
2022-09-06T01:17:02.913Z,1.00
2022-09-06T01:20:19.973Z,1.00
2022-09-06T01:23:28.762Z,1.00
2022-09-06T01:26:06.153Z,1.00
2022-09-06T01:28:38.530Z,1.00
2022-09-06T01:31:19.530Z,1.00
2022-09-06T01:33:52.666Z,1.00
2022-09-06T01:36:25.330Z,1.00
2022-09-06T01:38:53.404Z,1.00
2022-09-06T01:41:21.605Z,7.10
2022-09-06T01:43:52.831Z,11.20
2022-09-06T01:46:28.499Z,8.40
2022-09-06T01:49:23.039Z,19.70
2022-09-06T01:52:02.058Z,25.90
2022-09-06T01:54:45.150Z,22.60
2022-09-06T01:57:24.675Z,30.00
2022-09-06T02:00:07.643Z,19.90
2022-09-06T02:02:45.551Z,29.20
2022-09-06T02:05:17.776Z,35.40
2022-09-06T02:07:47.980Z,63.70
2022-09-06T02:10:21.883Z,64.80
2022-09-06T02:12:55.497Z,74.70
2022-09-06T02:15:28.106Z,72.20
2022-09-06T02:18:01.538Z,76.00
2022-09-06T02:20:32.725Z,83.40
2022-09-06T02:23:04.670Z,86.20
2022-09-06T02:25:39.387Z,87.20
2022-09-06T02:28:09.181Z,90.60
2022-09-06T02:30:43.656Z,95.70
2022-09-06T02:33:15.613Z,97.10
2022-09-06T02:35:45.786Z,99.90
2022-09-06T02:38:14.007Z,99.90
2022-09-06T02:40:43.252Z,99.90
2022-09-06T02:43:11.368Z,99.90
2022-09-06T02:45:40.999Z,99.90
2022-09-06T02:48:09.056Z,99.90
2022-09-06T02:50:37.166Z,99.90
2022-09-06T02:53:07.512Z,99.90
2022-09-06T02:55:35.569Z,99.90
2022-09-06T02:58:04.380Z,99.90
2022-09-06T03:00:32.724Z,99.90
2022-09-06T03:03:02.187Z,99.90
2022-09-06T03:05:30.740Z,99.90
2022-09-06T03:07:59.315Z,99.90
2022-09-06T03:10:27.434Z,99.90
2022-09-06T03:12:55.566Z,99.90
2022-09-06T03:15:23.631Z,99.90
2022-09-06T03:17:51.660Z,99.90
2022-09-06T03:20:21.085Z,99.90
2022-09-06T03:22:49.136Z,99.90
2022-09-06T03:25:17.286Z,99.90
2022-09-06T03:27:45.529Z,99.90
2022-09-06T03:30:14.009Z,99.90
2022-09-06T03:32:42.070Z,99.90
2022-09-06T03:35:11.171Z,99.90
2022-09-06T03:37:40.563Z,99.90
2022-09-06T03:40:10.016Z,99.90
2022-09-06T03:42:39.753Z,99.90
2022-09-06T03:45:08.872Z,99.90
2022-09-06T03:47:36.918Z,99.90
2022-09-06T03:50:05.713Z,99.90
2022-09-06T03:52:33.785Z,99.90
2022-09-06T03:55:03.919Z,99.90
2022-09-06T03:57:31.960Z,99.90
2022-09-06T04:00:00.005Z,99.90
2022-09-06T04:02:28.093Z,99.90
2022-09-06T04:04:56.130Z,99.90
2022-09-06T04:07:24.166Z,99.90
2022-09-06T04:09:52.180Z,99.90
2022-09-06T04:12:21.591Z,99.90
2022-09-06T04:14:49.798Z,99.90
2022-09-06T04:17:17.821Z,99.90
2022-09-06T04:19:45.893Z,99.90
2022-09-06T04:22:14.209Z,99.90
2022-09-06T04:24:42.266Z,99.90
2022-09-06T04:27:10.294Z,99.90
2022-09-06T04:29:39.739Z,99.90
2022-09-06T04:32:08.098Z,99.90
2022-09-06T04:34:36.294Z,99.90
2022-09-06T04:37:04.388Z,99.90
2022-09-06T04:39:32.489Z,99.90
2022-09-06T04:42:00.643Z,99.90
2022-09-06T04:44:28.684Z,99.90
2022-09-06T04:47:09.464Z,99.90
2022-09-06T04:49:37.732Z,99.90
2022-09-06T04:52:05.825Z,99.90
2022-09-06T04:54:33.916Z,99.90
2022-09-06T04:57:01.957Z,90.60
2022-09-06T04:59:30.333Z,62.00
2022-09-06T05:01:58.417Z,34.50
2022-09-06T05:04:31.223Z,13.00
2022-09-06T05:07:03.309Z,1.00
2022-09-06T05:09:31.640Z,1.00
2022-09-06T05:12:00.160Z,1.00
2022-09-06T05:14:28.317Z,1.00
2022-09-06T05:16:56.822Z,1.00
2022-09-06T05:19:24.996Z,1.00
2022-09-06T05:21:54.447Z,1.00
2022-09-06T05:24:22.472Z,1.00
2022-09-06T05:26:50.523Z,1.00
2022-09-06T05:29:18.577Z,1.00
2022-09-06T05:31:46.697Z,1.00
2022-09-06T05:34:15.078Z,1.00
2022-09-06T05:36:43.190Z,1.00
2022-09-06T05:39:12.590Z,1.00
2022-09-06T05:41:40.688Z,1.00
2022-09-06T05:44:08.758Z,99.90
2022-09-06T05:46:43.358Z,99.90
2022-09-06T05:49:11.380Z,99.90
2022-09-06T05:51:39.698Z,99.90
2022-09-06T05:54:08.832Z,79.70
2022-09-06T05:56:38.236Z,90.30
2022-09-06T05:59:06.257Z,99.90
2022-09-06T06:01:34.441Z,99.90
2022-09-06T06:04:04.584Z,99.90
2022-09-06T06:06:33.991Z,99.90
2022-09-06T06:09:02.269Z,99.90
2022-09-06T06:11:31.993Z,99.90
2022-09-06T06:14:03.070Z,99.90
2022-09-06T06:16:31.633Z,1.00
2022-09-06T06:18:59.953Z,99.90
2022-09-06T06:21:29.756Z,99.90
2022-09-06T06:23:59.422Z,99.90
2022-09-06T06:26:28.717Z,33.50
2022-09-06T06:28:57.849Z,47.60
2022-09-06T06:31:27.341Z,90.00
2022-09-06T06:33:55.417Z,99.90
2022-09-06T06:36:24.440Z,99.90
2022-09-06T06:38:55.953Z,99.90
2022-09-06T06:41:25.413Z,99.90
2022-09-06T06:43:54.086Z,99.90
2022-09-06T06:46:23.017Z,99.90
2022-09-06T06:48:55.272Z,99.90
2022-09-06T06:51:24.927Z,99.90
2022-09-06T06:53:53.199Z,99.90
2022-09-06T06:56:23.174Z,99.90
2022-09-06T06:58:53.363Z,99.90
2022-09-06T07:01:23.200Z,99.90
2022-09-06T07:03:53.118Z,99.90
2022-09-06T07:06:22.046Z,99.90
2022-09-06T07:08:50.169Z,99.90
2022-09-06T07:11:21.650Z,99.90
2022-09-06T07:13:52.687Z,99.90
2022-09-06T07:16:22.322Z,99.90
2022-09-06T07:18:54.537Z,99.90
2022-09-06T07:21:42.338Z,99.90
2022-09-06T07:24:10.788Z,1.00
2022-09-06T07:26:40.389Z,99.90
2022-09-06T07:29:09.560Z,25.50
2022-09-06T07:34:29.322Z,99.90
2022-09-06T07:36:57.400Z,99.80
2022-09-06T07:39:25.509Z,1.00
2022-09-06T07:41:53.607Z,99.90
2022-09-06T07:44:21.677Z,19.20
2022-09-06T07:46:52.587Z,1.00
2022-09-06T07:49:20.840Z,1.00
2022-09-06T07:51:50.552Z,1.00
2022-09-06T07:54:34.324Z,1.00
2022-09-06T07:57:02.388Z,1.00
2022-09-06T07:59:30.420Z,99.90
2022-09-06T08:01:58.471Z,99.90
2022-09-06T08:04:26.733Z,99.90
2022-09-06T08:09:45.333Z,92.30
2022-09-06T08:12:13.381Z,6.50
2022-09-06T08:14:41.400Z,1.00
2022-09-06T08:17:09.411Z,1.00
2022-09-06T08:19:37.494Z,1.00
2022-09-06T08:22:06.961Z,1.00
2022-09-06T08:24:36.426Z,1.00
2022-09-06T08:27:07.594Z,1.00
2022-09-06T08:29:35.951Z,1.00
2022-09-06T08:32:04.671Z,99.90
2022-09-06T08:34:32.764Z,99.90
2022-09-06T08:37:00.841Z,99.90
2022-09-06T08:39:30.303Z,99.90
2022-09-06T08:42:02.996Z,99.90
2022-09-06T08:47:23.760Z,99.90
2022-09-06T08:49:54.653Z,99.90
2022-09-06T08:53:13.691Z,50.40
2022-09-06T08:55:47.106Z,1.00
2022-09-06T08:58:28.144Z,1.00
2022-09-06T09:00:59.939Z,1.00
2022-09-06T09:03:33.195Z,1.00
2022-09-06T09:06:03.497Z,1.00
2022-09-06T09:08:39.674Z,1.00
2022-09-06T09:11:13.660Z,1.00
2022-09-06T09:13:52.608Z,1.00
2022-09-06T09:16:22.861Z,1.00
2022-09-06T09:18:53.444Z,1.00
2022-09-06T09:21:26.914Z,1.00
2022-09-06T09:24:00.026Z,1.00
2022-09-06T09:26:36.720Z,1.00
2022-09-06T09:29:06.861Z,99.90
2022-09-06T09:31:37.214Z,99.90
2022-09-06T09:34:05.653Z,99.90
2022-09-06T09:36:34.115Z,99.90
2022-09-06T09:39:09.500Z,99.90
2022-09-06T09:41:41.698Z,99.90
2022-09-06T09:44:12.478Z,99.90
2022-09-06T09:46:41.817Z,99.90
2022-09-06T09:49:11.666Z,99.90
2022-09-06T09:51:41.510Z,99.90
2022-09-06T09:54:11.244Z,99.90
2022-09-06T09:56:47.481Z,99.90
2022-09-06T09:59:27.024Z,99.90
2022-09-06T10:01:57.450Z,99.90
2022-09-06T10:04:49.255Z,99.90
2022-09-06T10:07:19.695Z,99.90
2022-09-06T10:09:49.475Z,99.90
2022-09-06T10:12:28.448Z,99.90
2022-09-06T10:14:57.745Z,99.90
2022-09-06T10:17:32.323Z,99.90
2022-09-06T10:20:04.554Z,99.90
2022-09-06T10:22:38.348Z,99.90
2022-09-06T10:25:38.259Z,99.90
2022-09-06T10:28:34.320Z,99.90
2022-09-06T10:31:45.499Z,99.90
2022-09-06T10:34:42.105Z,99.90
2022-09-06T10:37:21.518Z,99.90
2022-09-06T10:39:55.772Z,99.90
2022-09-06T10:42:33.523Z,99.90
2022-09-06T10:45:27.514Z,99.90
2022-09-06T10:48:02.027Z,99.90
2022-09-06T10:50:39.473Z,99.90
2022-09-06T10:53:12.210Z,99.90
2022-09-06T10:55:45.197Z,99.90
2022-09-06T10:58:23.287Z,99.90
2022-09-06T11:00:54.599Z,99.90
2022-09-06T11:06:20.026Z,99.90
2022-09-06T11:08:57.835Z,99.90
2022-09-06T11:11:35.619Z,99.90
2022-09-06T11:14:09.266Z,99.90
2022-09-06T11:16:45.462Z,99.90
2022-09-06T11:19:19.029Z,99.90
2022-09-06T11:22:19.041Z,99.90
2022-09-06T11:25:10.371Z,99.90
2022-09-06T11:27:42.530Z,99.90
2022-09-06T11:30:16.724Z,99.90
2022-09-06T11:32:50.048Z,99.90
2022-09-06T11:35:27.227Z,99.90
2022-09-06T11:38:01.656Z,99.90
2022-09-06T11:40:37.574Z,99.90
2022-09-06T11:43:39.173Z,99.90
2022-09-06T11:46:07.363Z,99.90
2022-09-06T11:49:00.776Z,99.90
2022-09-06T11:51:37.663Z,99.90
2022-09-06T11:54:26.854Z,99.90
2022-09-06T11:57:01.708Z,99.90
2022-09-06T11:59:39.560Z,99.90
2022-09-06T12:02:29.202Z,99.90
2022-09-06T12:05:20.559Z,99.90
2022-09-06T12:08:31.272Z,99.90
2022-09-06T12:11:34.392Z,99.90
2022-09-06T12:14:07.164Z,99.90
2022-09-06T12:17:09.000Z,99.90
2022-09-06T12:19:44.479Z,99.90
2022-09-06T12:22:55.471Z,99.90
2022-09-06T12:25:57.104Z,99.90
2022-09-06T12:28:45.112Z,99.90
2022-09-06T12:31:30.366Z,99.90
2022-09-06T12:34:00.036Z,99.90
2022-09-06T12:36:31.403Z,99.90
2022-09-06T12:39:02.573Z,99.90
2022-09-06T12:41:33.242Z,99.90
2022-09-06T12:44:02.854Z,99.90
2022-09-06T12:46:32.571Z,99.90
2022-09-06T12:49:09.406Z,99.90
2022-09-06T12:51:38.818Z,99.90
2022-09-06T12:54:20.701Z,99.90
2022-09-06T12:56:49.552Z,99.90
2022-09-06T12:59:19.908Z,99.90
2022-09-06T13:01:54.734Z,99.90
2022-09-06T13:04:32.191Z,99.90
2022-09-06T13:07:02.233Z,99.90
2022-09-06T13:09:32.749Z,99.90
2022-09-06T13:12:07.557Z,99.90
2022-09-06T13:14:36.435Z,99.90
2022-09-06T13:17:04.572Z,99.90
2022-09-06T13:19:35.515Z,99.90
2022-09-06T13:22:07.389Z,99.90
2022-09-06T13:24:47.657Z,99.90
2022-09-06T13:27:27.859Z,99.90
2022-09-06T13:29:57.784Z,99.90
2022-09-06T13:32:26.978Z,99.90
2022-09-06T13:34:57.896Z,99.90
2022-09-06T13:37:27.080Z,99.90
2022-09-06T13:39:57.494Z,99.90
2022-09-06T13:42:29.030Z,99.90
2022-09-06T13:45:01.812Z,99.90
2022-09-06T13:47:30.845Z,99.90
2022-09-06T13:49:59.426Z,99.90
2022-09-06T13:52:27.693Z,99.90
2022-09-06T13:54:57.094Z,99.90
2022-09-06T13:57:25.170Z,99.90
2022-09-06T13:59:53.579Z,99.90
2022-09-06T14:02:21.938Z,99.90
2022-09-06T14:04:50.153Z,99.90
2022-09-06T14:07:18.332Z,99.90
2022-09-06T14:09:47.434Z,99.90
2022-09-06T14:12:16.864Z,99.90
2022-09-06T14:14:45.730Z,99.90
2022-09-06T14:17:14.534Z,99.90
2022-09-06T14:19:42.709Z,99.90
2022-09-06T14:22:10.735Z,99.90
2022-09-06T14:24:39.222Z,99.90
2022-09-06T14:27:08.592Z,99.90
2022-09-06T14:29:37.989Z,99.90
2022-09-06T14:32:06.122Z,99.90
2022-09-06T14:34:34.192Z,99.90
2022-09-06T14:37:02.216Z,99.90
2022-09-06T14:39:31.483Z,1.00
2022-09-06T14:41:59.559Z,1.00
2022-09-06T14:44:27.659Z,99.90
2022-09-06T14:46:57.042Z,99.90
2022-09-06T14:49:25.218Z,99.90
2022-09-06T14:51:54.246Z,99.90
2022-09-06T14:54:26.082Z,99.90
2022-09-06T14:56:59.423Z,99.90
2022-09-06T14:59:27.851Z,99.90
2022-09-06T15:02:00.304Z,99.90
2022-09-06T15:04:29.612Z,99.90
2022-09-06T15:06:57.652Z,99.90
2022-09-06T15:09:25.788Z,99.90
2022-09-06T15:11:54.630Z,1.00
2022-09-06T15:14:26.469Z,1.00
2022-09-06T15:16:58.101Z,1.00
2022-09-06T15:19:27.451Z,1.00
2022-09-06T15:21:56.268Z,1.00
2022-09-06T15:24:24.608Z,1.00
2022-09-06T15:26:52.738Z,1.00
2022-09-06T15:29:21.375Z,1.00
2022-09-06T15:31:51.835Z,1.00
2022-09-06T15:34:22.625Z,1.00
2022-09-06T15:36:51.220Z,1.00
2022-09-06T15:39:20.137Z,1.00
2022-09-06T15:41:53.445Z,1.00
2022-09-06T15:44:22.320Z,1.00
2022-09-06T15:46:53.892Z,1.00
2022-09-06T15:49:28.176Z,1.00
2022-09-06T15:51:57.400Z,1.00
2022-09-06T15:54:46.151Z,1.00
2022-09-06T15:57:16.624Z,1.00
2022-09-06T15:59:45.122Z,1.00
2022-09-06T16:02:13.882Z,1.00
2022-09-06T16:04:43.317Z,1.00
2022-09-06T16:07:11.864Z,1.00
2022-09-06T16:09:41.200Z,1.00
2022-09-06T16:12:09.640Z,1.00
2022-09-06T16:14:40.973Z,1.00
2022-09-06T16:17:09.282Z,18.40
2022-09-06T16:19:40.084Z,24.40
2022-09-06T16:22:10.226Z,46.80
2022-09-06T16:24:39.226Z,59.00
2022-09-06T16:27:07.292Z,69.00
2022-09-06T16:29:37.258Z,85.50
2022-09-06T16:32:05.387Z,98.50
2022-09-06T16:34:33.444Z,99.90
2022-09-06T16:37:07.724Z,99.90
2022-09-06T16:39:37.679Z,99.90
2022-09-06T16:42:05.857Z,99.90
2022-09-06T16:44:33.925Z,99.90
2022-09-06T16:47:04.044Z,99.90
2022-09-06T16:49:32.633Z,99.90
2022-09-06T16:52:00.703Z,99.90
2022-09-06T16:54:28.746Z,99.90
2022-09-06T16:56:58.388Z,99.90
2022-09-06T16:59:26.512Z,99.90
2022-09-06T17:01:56.105Z,99.90
2022-09-06T17:04:24.453Z,99.90
2022-09-06T17:06:52.909Z,99.90
2022-09-06T17:09:20.941Z,99.90
2022-09-06T17:11:50.063Z,99.90
2022-09-06T17:14:20.151Z,1.00
2022-09-06T17:17:05.851Z,1.00
2022-09-06T17:19:37.000Z,1.00
2022-09-06T17:22:05.517Z,1.00
2022-09-06T17:24:33.665Z,1.00
2022-09-06T17:27:01.719Z,1.00
2022-09-06T17:29:31.224Z,1.00
2022-09-06T17:31:59.492Z,1.00
2022-09-06T17:34:28.112Z,5.60
2022-09-06T17:36:56.186Z,21.80
2022-09-06T17:39:24.300Z,22.30
2022-09-06T17:41:54.276Z,55.70
2022-09-06T17:44:25.350Z,83.60
2022-09-06T17:47:12.607Z,99.80
2022-09-06T17:49:42.619Z,99.90
2022-09-06T17:52:10.754Z,99.90
2022-09-06T17:54:38.809Z,99.90
2022-09-06T17:57:06.849Z,99.90
2022-09-06T17:59:35.989Z,99.90
2022-09-06T18:02:06.265Z,99.90
2022-09-06T18:04:34.440Z,99.90
2022-09-06T18:07:02.495Z,99.90
2022-09-06T18:09:30.696Z,1.00
2022-09-06T18:11:58.960Z,1.00
2022-09-06T18:14:28.487Z,1.00
2022-09-06T18:16:57.134Z,1.00
2022-09-06T18:19:27.463Z,1.00
2022-09-06T18:21:57.078Z,1.00
2022-09-06T18:24:25.249Z,1.00
2022-09-06T18:26:53.272Z,3.60
2022-09-06T18:29:21.653Z,25.10
2022-09-06T18:31:53.357Z,93.00
2022-09-06T18:34:21.880Z,99.90
2022-09-06T18:36:51.361Z,99.90
2022-09-06T18:39:20.363Z,99.90
2022-09-06T18:42:07.020Z,99.90
2022-09-06T18:44:36.332Z,99.90
2022-09-06T18:47:07.270Z,99.90
2022-09-06T18:49:38.510Z,99.90
2022-09-06T18:52:10.177Z,99.90
2022-09-06T18:54:38.262Z,1.00
2022-09-06T18:57:06.342Z,1.00
2022-09-06T18:59:34.437Z,1.00
2022-09-06T19:02:02.720Z,60.50
2022-09-06T19:04:31.069Z,99.90
2022-09-06T19:07:01.961Z,99.90
2022-09-06T19:09:31.478Z,99.90
2022-09-06T19:11:59.519Z,99.90
2022-09-06T19:14:27.579Z,99.90
2022-09-06T19:16:55.661Z,99.90
2022-09-06T19:19:23.753Z,1.00
2022-09-06T19:21:51.854Z,1.00
2022-09-06T19:24:24.590Z,1.00
2022-09-06T19:26:55.197Z,15.70
2022-09-06T19:29:27.255Z,81.80
2022-09-06T19:31:55.473Z,99.90
2022-09-06T19:34:23.587Z,99.90
2022-09-06T19:36:55.250Z,99.90
2022-09-06T19:39:23.453Z,99.90
2022-09-06T19:41:54.403Z,99.90
2022-09-06T19:44:22.586Z,99.90
2022-09-06T19:46:51.127Z,99.90
2022-09-06T19:49:20.341Z,99.90
2022-09-06T19:51:50.760Z,99.90
2022-09-06T19:54:22.049Z,99.90
2022-09-06T19:56:50.157Z,1.00
2022-09-06T19:59:19.733Z,1.00
2022-09-06T20:01:49.861Z,1.00
2022-09-06T20:04:17.960Z,1.00
2022-09-06T20:06:46.029Z,1.00
2022-09-06T20:09:15.880Z,1.00
2022-09-06T20:11:44.261Z,1.00
2022-09-06T20:14:13.119Z,1.00
2022-09-06T20:16:43.252Z,1.00
2022-09-06T20:19:15.158Z,1.00
2022-09-06T20:21:44.015Z,1.00
2022-09-06T20:24:12.186Z,1.00
2022-09-06T20:26:40.402Z,1.00
2022-09-06T20:29:08.932Z,1.00
2022-09-06T20:31:38.490Z,1.00
2022-09-06T20:34:08.594Z,1.00
2022-09-06T20:36:37.134Z,1.00
2022-09-06T20:39:05.644Z,1.00
2022-09-06T20:41:33.876Z,1.00
2022-09-06T20:44:02.158Z,1.00
2022-09-06T20:46:32.121Z,1.00
2022-09-06T20:49:04.300Z,1.00
2022-09-06T20:51:35.197Z,1.00
2022-09-06T20:54:04.809Z,1.00
2022-09-06T20:56:34.795Z,1.00
2022-09-06T20:59:05.429Z,1.00
2022-09-06T21:01:35.748Z,1.00
2022-09-06T21:04:06.694Z,1.00
2022-09-06T21:06:37.763Z,1.00
2022-09-06T21:09:07.008Z,1.00
2022-09-06T21:11:35.406Z,1.00
2022-09-06T21:14:04.007Z,99.90
2022-09-06T21:16:32.871Z,99.90
2022-09-06T21:19:03.308Z,99.90
2022-09-06T21:21:33.293Z,99.90
2022-09-06T21:24:03.234Z,99.90
2022-09-06T21:26:31.261Z,99.90
2022-09-06T21:28:59.715Z,99.90
2022-09-06T21:31:29.534Z,99.90
2022-09-06T21:33:59.492Z,99.90
2022-09-06T21:36:29.864Z,99.90
2022-09-06T21:38:59.087Z,99.90
2022-09-06T21:41:29.404Z,99.90
2022-09-06T21:43:59.313Z,99.90
2022-09-06T21:46:32.544Z,99.90
2022-09-06T21:49:04.855Z,99.90
2022-09-06T21:51:33.485Z,98.80
2022-09-06T21:54:04.852Z,80.60
2022-09-06T21:56:37.819Z,55.20
2022-09-06T21:59:06.681Z,1.00
2022-09-06T22:01:36.893Z,11.30
2022-09-06T22:04:06.027Z,1.00
2022-09-06T22:06:37.160Z,1.00
2022-09-06T22:09:10.684Z,1.00
2022-09-06T22:11:42.360Z,1.00
2022-09-06T22:14:12.278Z,1.00
2022-09-06T22:16:41.669Z,1.00
2022-09-06T22:19:10.798Z,1.00
2022-09-06T22:21:39.712Z,1.00
2022-09-06T22:24:10.412Z,1.00
2022-09-06T22:26:43.380Z,1.00
2022-09-06T22:29:15.493Z,1.00
2022-09-06T22:31:43.822Z,1.00
2022-09-06T22:34:12.211Z,1.00
2022-09-06T22:36:40.462Z,1.00
2022-09-06T22:39:09.477Z,1.00
2022-09-06T22:41:37.706Z,1.00
2022-09-06T22:44:07.494Z,1.00
2022-09-06T22:46:36.946Z,1.00
2022-09-06T22:49:05.455Z,1.00
2022-09-06T22:51:33.645Z,1.00
2022-09-06T22:54:01.851Z,1.00
2022-09-06T22:56:30.186Z,1.00
2022-09-06T22:58:59.711Z,1.00
2022-09-06T23:01:29.446Z,1.00
2022-09-06T23:03:57.612Z,1.00
2022-09-06T23:06:26.052Z,1.00
2022-09-06T23:08:54.241Z,1.00
2022-09-06T23:11:22.455Z,1.00
2022-09-06T23:13:50.791Z,1.00
2022-09-06T23:16:20.320Z,1.00
2022-09-06T23:18:50.385Z,1.00
2022-09-06T23:21:20.966Z,1.00
2022-09-06T23:23:50.701Z,1.00
2022-09-06T23:26:20.588Z,1.00
2022-09-06T23:28:51.631Z,1.00
2022-09-06T23:31:19.921Z,1.00
2022-09-06T23:33:53.162Z,1.00
2022-09-06T23:36:21.440Z,1.00
2022-09-06T23:38:49.789Z,1.00
2022-09-06T23:41:18.480Z,22.90
2022-09-06T23:43:46.669Z,33.90
2022-09-06T23:46:18.408Z,50.50
2022-09-06T23:48:46.873Z,92.00
2022-09-06T23:51:16.484Z,99.90
2022-09-06T23:53:44.695Z,99.90
2022-09-06T23:56:13.551Z,99.90
2022-09-06T23:58:41.773Z,99.90
